Lenzburg, Illinois
Current Conditions -  °F | °C
As of 4:15 AM on Monday 26 Jan 2015 (Local Time) from KSAR Reporting Station
Clear Clear  
Wind Chill: 19°   Ceiling: Unl
Heat Index: 28°   Visibility: 10mi
Dew Point: 22°   Wind: 9mph
Humidity: 81%   Direction: 320°NW
Pressure: 30.04"   Gusts: 16mph
Location:  38.29°N, 89.82°W
Report Text: KSAR 261015Z AUTO 32008G14KT 10SM CLR M02/M05 A3004 RMK AO2 T10251054
Loading
Personal Weather Stations






























Interactive Weather Map New forecast layout! Learn more

10-Day Weather Forecast

Advertisements
Track Severe Weather on mobile